createdAt,value
2022-09-07T00:00:53.025Z,17.06
2022-09-07T00:01:53.012Z,17.08
2022-09-07T00:02:53.051Z,17.08
2022-09-07T00:03:53.037Z,17.07
2022-09-07T00:04:52.976Z,17.04
2022-09-07T00:05:52.945Z,16.98
2022-09-07T00:06:52.970Z,17.03
2022-09-07T00:07:52.922Z,17.07
2022-09-07T00:08:52.925Z,17.14
2022-09-07T00:09:52.904Z,17.20
2022-09-07T00:10:52.940Z,17.25
2022-09-07T00:11:52.869Z,17.32
2022-09-07T00:12:52.859Z,17.32
2022-09-07T00:13:52.867Z,17.33
2022-09-07T00:14:52.847Z,17.36
2022-09-07T00:15:52.859Z,17.33
2022-09-07T00:16:52.821Z,17.30
2022-09-07T00:17:52.797Z,17.28
2022-09-07T00:18:52.803Z,17.25
2022-09-07T00:19:52.777Z,17.17
2022-09-07T00:20:52.793Z,17.13
2022-09-07T00:21:52.726Z,17.11
2022-09-07T00:22:52.730Z,17.04
2022-09-07T00:23:52.735Z,16.95
2022-09-07T00:24:52.713Z,16.89
2022-09-07T00:25:54.245Z,16.83
2022-09-07T00:26:52.680Z,16.78
2022-09-07T00:27:52.659Z,16.77
2022-09-07T00:28:52.652Z,16.73
2022-09-07T00:29:52.642Z,16.68
2022-09-07T00:30:52.622Z,16.62
2022-09-07T00:31:52.658Z,16.58
2022-09-07T00:32:52.605Z,16.56
2022-09-07T00:33:52.612Z,16.58
2022-09-07T00:34:52.575Z,16.58
2022-09-07T00:35:52.571Z,16.53
2022-09-07T00:36:52.543Z,16.45
2022-09-07T00:37:52.536Z,16.40
2022-09-07T00:38:52.541Z,16.37
2022-09-07T00:39:52.599Z,16.34
2022-09-07T00:40:52.506Z,16.33
2022-09-07T00:41:52.484Z,16.34
2022-09-07T00:42:52.462Z,16.31
2022-09-07T00:43:52.474Z,16.31
2022-09-07T00:44:52.449Z,16.30
2022-09-07T00:45:52.444Z,16.27
2022-09-07T00:46:52.456Z,16.27
2022-09-07T00:47:52.408Z,16.27
2022-09-07T00:48:52.424Z,16.25
2022-09-07T00:49:52.396Z,16.23
2022-09-07T00:50:52.379Z,16.23
2022-09-07T00:51:52.357Z,16.20
2022-09-07T00:52:52.355Z,16.16
2022-09-07T00:53:52.408Z,16.14
2022-09-07T00:54:52.346Z,16.11
2022-09-07T00:55:52.311Z,16.07
2022-09-07T00:56:52.288Z,16.07
2022-09-07T00:57:52.301Z,16.04
2022-09-07T00:58:52.327Z,16.04
2022-09-07T00:59:52.258Z,16.00
2022-09-07T01:00:52.238Z,15.97
2022-09-07T01:01:52.370Z,15.93
2022-09-07T01:02:52.327Z,15.89
2022-09-07T01:03:52.207Z,15.88
2022-09-07T01:04:52.199Z,15.84
2022-09-07T01:05:52.181Z,15.82
2022-09-07T01:06:52.166Z,15.81
2022-09-07T01:07:52.141Z,15.81
2022-09-07T01:08:52.142Z,15.82
2022-09-07T01:09:52.152Z,15.79
2022-09-07T01:10:52.114Z,15.78
2022-09-07T01:11:52.081Z,15.75
2022-09-07T01:12:52.064Z,15.74
2022-09-07T01:13:52.060Z,15.70
2022-09-07T01:14:52.082Z,15.68
2022-09-07T01:15:52.123Z,15.70
2022-09-07T01:16:52.011Z,15.68
2022-09-07T01:17:52.041Z,15.67
2022-09-07T01:18:51.992Z,15.66
2022-09-07T01:19:52.035Z,15.66
2022-09-07T01:20:51.972Z,15.63
2022-09-07T01:21:51.963Z,15.63
2022-09-07T01:22:51.952Z,15.61
2022-09-07T01:23:51.944Z,15.63
2022-09-07T01:24:51.934Z,15.63
2022-09-07T01:25:51.913Z,15.64
2022-09-07T01:26:51.883Z,15.67
2022-09-07T01:27:51.915Z,15.67
2022-09-07T01:28:51.882Z,15.66
2022-09-07T01:29:51.881Z,15.66
2022-09-07T01:30:52.851Z,15.67
2022-09-07T01:31:51.855Z,15.72
2022-09-07T01:32:51.836Z,15.75
2022-09-07T01:33:51.795Z,15.76
2022-09-07T01:34:51.808Z,15.79
2022-09-07T01:35:51.786Z,15.81
2022-09-07T01:36:51.756Z,15.79
2022-09-07T01:37:56.330Z,15.79
2022-09-07T01:38:52.757Z,15.78
2022-09-07T01:39:51.781Z,15.76
2022-09-07T01:40:51.715Z,15.79
2022-09-07T01:41:51.708Z,15.78
2022-09-07T01:42:51.687Z,15.78
2022-09-07T01:43:51.685Z,15.78
2022-09-07T01:44:51.697Z,15.78
2022-09-07T01:45:51.667Z,15.79
2022-09-07T01:46:51.633Z,15.79
2022-09-07T01:47:51.628Z,15.81
2022-09-07T01:48:51.657Z,15.82
2022-09-07T01:49:51.591Z,15.84
2022-09-07T01:50:51.599Z,15.85
2022-09-07T01:51:51.569Z,15.84
2022-09-07T01:52:51.559Z,15.85
2022-09-07T01:53:51.553Z,15.86
2022-09-07T01:54:51.569Z,15.92
2022-09-07T01:55:51.520Z,15.96
2022-09-07T01:56:51.509Z,16.01
2022-09-07T01:57:51.508Z,16.01
2022-09-07T01:58:51.492Z,16.06
2022-09-07T01:59:51.470Z,16.09
2022-09-07T02:00:51.451Z,16.09
2022-09-07T02:01:51.507Z,16.06
2022-09-07T02:02:51.463Z,16.03
2022-09-07T02:03:51.421Z,16.03
2022-09-07T02:04:51.441Z,15.99
2022-09-07T02:05:51.392Z,15.96
2022-09-07T02:06:51.370Z,15.94
2022-09-07T02:07:51.378Z,15.93
2022-09-07T02:08:51.352Z,15.96
2022-09-07T02:09:51.357Z,15.97
2022-09-07T02:10:51.340Z,15.99
2022-09-07T02:11:51.332Z,16.00
2022-09-07T02:12:51.305Z,15.96
2022-09-07T02:13:51.300Z,15.93
2022-09-07T02:14:52.860Z,15.89
2022-09-07T02:15:51.358Z,15.89
2022-09-07T02:16:51.255Z,15.89
2022-09-07T02:17:51.247Z,15.94
2022-09-07T02:18:51.217Z,15.97
2022-09-07T02:19:51.232Z,15.97
2022-09-07T02:20:51.194Z,15.94
2022-09-07T02:21:51.174Z,15.93
2022-09-07T02:22:51.168Z,15.88
2022-09-07T02:23:51.156Z,15.85
2022-09-07T02:24:51.167Z,15.85
2022-09-07T02:25:51.127Z,15.82
2022-09-07T02:26:51.116Z,15.82
2022-09-07T02:27:51.113Z,15.82
2022-09-07T02:28:51.096Z,15.81
2022-09-07T02:29:51.099Z,15.81
2022-09-07T02:30:51.110Z,15.79
2022-09-07T02:31:51.088Z,15.82
2022-09-07T02:32:51.034Z,15.78
2022-09-07T02:33:51.044Z,15.75
2022-09-07T02:34:51.050Z,15.76
2022-09-07T02:35:51.008Z,15.79
2022-09-07T02:36:50.986Z,15.84
2022-09-07T02:37:50.990Z,15.86
2022-09-07T02:38:50.959Z,15.86
2022-09-07T02:39:51.043Z,15.84
2022-09-07T02:40:50.949Z,15.81
2022-09-07T02:41:50.938Z,15.79
2022-09-07T02:42:50.908Z,15.78
2022-09-07T02:43:50.915Z,15.78
2022-09-07T02:44:50.900Z,15.74
2022-09-07T02:45:50.896Z,15.74
2022-09-07T02:46:50.861Z,15.70
2022-09-07T02:47:50.851Z,15.70
2022-09-07T02:48:50.829Z,15.70
2022-09-07T02:49:50.842Z,15.72
2022-09-07T02:50:50.817Z,15.76
2022-09-07T02:51:50.809Z,15.76
2022-09-07T02:52:50.794Z,15.76
2022-09-07T02:53:50.791Z,15.76
2022-09-07T02:54:50.780Z,15.75
2022-09-07T02:55:50.780Z,15.75
2022-09-07T02:56:50.968Z,15.74
2022-09-07T02:57:50.797Z,15.68
2022-09-07T02:58:50.814Z,15.68
2022-09-07T02:59:50.762Z,15.70
2022-09-07T03:00:50.737Z,15.67
2022-09-07T03:01:50.752Z,15.70
2022-09-07T03:02:50.698Z,15.66
2022-09-07T03:03:50.753Z,15.66
2022-09-07T03:04:50.689Z,15.64
2022-09-07T03:05:50.613Z,15.63
2022-09-07T03:06:50.664Z,15.61
2022-09-07T03:07:50.595Z,15.60
2022-09-07T03:08:50.667Z,15.60
2022-09-07T03:09:50.602Z,15.60
2022-09-07T03:10:50.585Z,15.67
2022-09-07T03:11:50.538Z,15.70
2022-09-07T03:12:50.592Z,15.74
2022-09-07T03:13:50.734Z,15.75
2022-09-07T03:14:50.538Z,15.75
2022-09-07T03:15:55.572Z,15.75
2022-09-07T03:16:51.548Z,15.76
2022-09-07T03:17:50.547Z,15.76
2022-09-07T03:18:50.535Z,15.75
2022-09-07T03:19:53.759Z,15.72
2022-09-07T03:20:50.450Z,15.76
2022-09-07T03:21:50.455Z,15.78
2022-09-07T03:22:50.457Z,15.78
2022-09-07T03:23:51.937Z,15.79
2022-09-07T03:24:50.388Z,15.79
2022-09-07T03:25:50.358Z,15.78
2022-09-07T03:26:50.423Z,15.75
2022-09-07T03:27:50.332Z,15.78
2022-09-07T03:28:50.318Z,15.78
2022-09-07T03:29:50.332Z,15.81
2022-09-07T03:30:50.393Z,15.79
2022-09-07T03:31:50.282Z,15.85
2022-09-07T03:32:50.332Z,15.86
2022-09-07T03:33:50.339Z,15.86
2022-09-07T03:34:50.368Z,15.82
2022-09-07T03:35:50.289Z,15.81
2022-09-07T03:36:50.221Z,15.78
2022-09-07T03:37:50.271Z,15.75
2022-09-07T03:38:50.282Z,15.75
2022-09-07T03:39:50.269Z,15.70
2022-09-07T03:40:50.196Z,15.66
2022-09-07T03:41:52.854Z,15.66
2022-09-07T03:44:00.366Z,15.61
2022-09-07T03:45:00.457Z,15.57
2022-09-07T03:46:00.426Z,15.54
2022-09-07T03:47:00.366Z,15.51
2022-09-07T03:48:00.357Z,15.48
2022-09-07T03:49:01.317Z,15.45
2022-09-07T03:50:00.414Z,15.42
2022-09-07T04:03:40.802Z,15.17
2022-09-07T04:04:40.789Z,15.13
2022-09-07T04:05:40.759Z,15.12
2022-09-07T04:06:40.754Z,15.11
2022-09-07T04:07:40.759Z,15.06
2022-09-07T04:08:40.719Z,15.06
2022-09-07T04:09:40.745Z,15.05
2022-09-07T04:10:40.690Z,15.05
2022-09-07T04:11:40.693Z,15.03
2022-09-07T04:12:40.672Z,15.02
2022-09-07T04:13:40.675Z,15.02
2022-09-07T04:14:40.665Z,15.03
2022-09-07T04:15:40.632Z,15.06
2022-09-07T04:16:48.181Z,15.06
2022-09-07T04:17:40.611Z,15.05
2022-09-07T04:18:40.602Z,15.01
2022-09-07T04:19:40.598Z,15.01
2022-09-07T04:20:40.573Z,15.03
2022-09-07T04:21:40.574Z,15.03
2022-09-07T04:22:40.562Z,15.02
2022-09-07T04:23:40.540Z,15.02
2022-09-07T04:24:40.522Z,15.02
2022-09-07T04:25:40.529Z,15.03
2022-09-07T04:26:40.492Z,15.03
2022-09-07T04:27:41.473Z,15.05
2022-09-07T04:28:40.472Z,15.05
2022-09-07T04:29:40.482Z,15.06
2022-09-07T04:30:40.476Z,15.06
2022-09-07T04:31:40.435Z,15.08
2022-09-07T04:32:40.413Z,15.08
2022-09-07T04:33:40.457Z,15.11
2022-09-07T04:34:40.416Z,15.13
2022-09-07T04:35:40.375Z,15.19
2022-09-07T04:36:40.373Z,15.19
2022-09-07T04:37:40.335Z,15.21
2022-09-07T04:38:40.327Z,15.26
2022-09-07T04:39:40.421Z,15.28
2022-09-07T04:40:40.305Z,15.30
2022-09-07T04:41:40.296Z,15.30
2022-09-07T04:42:40.308Z,15.31
2022-09-07T04:43:40.284Z,15.31
2022-09-07T04:44:40.267Z,15.31
2022-09-07T04:45:40.270Z,15.36
2022-09-07T04:46:40.218Z,15.41
2022-09-07T04:47:40.228Z,15.41
2022-09-07T04:48:40.212Z,15.45
2022-09-07T04:49:40.205Z,15.48
2022-09-07T04:50:40.178Z,15.54
2022-09-07T04:51:40.169Z,15.56
2022-09-07T04:52:40.177Z,15.56
2022-09-07T04:53:40.138Z,15.56
2022-09-07T04:54:40.139Z,15.57
2022-09-07T04:55:40.109Z,15.61
2022-09-07T04:56:40.099Z,15.64
2022-09-07T04:57:40.092Z,15.66
2022-09-07T04:58:40.103Z,15.66
2022-09-07T04:59:40.068Z,15.67
2022-09-07T05:00:40.068Z,15.74
2022-09-07T05:01:40.065Z,15.74
2022-09-07T05:02:40.099Z,15.76
2022-09-07T05:03:40.056Z,15.81
2022-09-07T05:04:40.032Z,15.85
2022-09-07T05:05:39.991Z,15.88
2022-09-07T05:06:40.066Z,15.93
2022-09-07T05:07:39.967Z,15.97
2022-09-07T05:08:39.981Z,16.01
2022-09-07T05:09:40.018Z,16.04
2022-09-07T05:10:39.912Z,16.06
2022-09-07T05:11:39.911Z,16.06
2022-09-07T05:12:39.911Z,16.09
2022-09-07T05:13:39.892Z,16.11
2022-09-07T05:14:39.883Z,16.11
2022-09-07T05:15:39.865Z,16.11
2022-09-07T05:16:39.879Z,16.12
2022-09-07T05:17:39.854Z,16.15
2022-09-07T05:18:39.835Z,16.15
2022-09-07T05:19:39.835Z,16.18
2022-09-07T05:20:39.792Z,16.22
2022-09-07T05:21:39.784Z,16.23
2022-09-07T05:22:39.786Z,16.27
2022-09-07T05:23:40.754Z,16.31
2022-09-07T05:24:39.745Z,16.35
2022-09-07T05:25:39.758Z,16.37
2022-09-07T05:26:39.718Z,16.41
2022-09-07T05:27:39.705Z,16.45
2022-09-07T05:28:40.725Z,16.45
2022-09-07T05:31:40.676Z,16.53
2022-09-07T05:32:39.636Z,16.53
2022-09-07T05:34:40.648Z,16.52
2022-09-07T05:35:39.629Z,16.53
2022-09-07T05:36:39.598Z,16.55
2022-09-07T05:37:39.567Z,16.58
2022-09-07T05:38:40.574Z,16.58
2022-09-07T05:39:39.620Z,16.58
2022-09-07T05:40:40.810Z,16.59
2022-09-07T05:41:39.531Z,16.62
2022-09-07T05:42:39.507Z,16.67
2022-09-07T05:44:43.931Z,16.75
2022-09-07T05:45:39.536Z,16.75
2022-09-07T05:46:39.458Z,16.75
2022-09-07T05:47:39.452Z,16.74
2022-09-07T05:48:39.449Z,16.73
2022-09-07T05:49:39.420Z,16.74
2022-09-07T05:50:39.443Z,16.74
2022-09-07T05:51:39.398Z,16.74
2022-09-07T05:52:39.370Z,16.75
2022-09-07T05:53:39.379Z,16.80
2022-09-07T05:54:39.340Z,16.86
2022-09-07T05:55:39.342Z,16.96
2022-09-07T05:56:39.335Z,16.96
2022-09-07T05:57:39.314Z,16.99
2022-09-07T05:58:40.337Z,17.00
2022-09-07T05:59:39.319Z,17.00
2022-09-07T06:00:39.287Z,16.98
2022-09-07T06:01:39.334Z,16.98
2022-09-07T06:02:39.984Z,17.00
2022-09-07T06:03:39.334Z,17.03
2022-09-07T06:04:39.244Z,16.99
2022-09-07T06:05:39.213Z,16.99
2022-09-07T06:06:39.205Z,16.98
2022-09-07T06:07:39.186Z,16.99
2022-09-07T06:08:39.174Z,16.98
2022-09-07T06:11:39.134Z,17.04
2022-09-07T06:12:39.132Z,17.08
2022-09-07T06:13:39.115Z,17.13
2022-09-07T06:14:39.108Z,17.18
2022-09-07T06:15:39.107Z,17.25
2022-09-07T06:16:39.206Z,17.29
2022-09-07T06:17:39.056Z,17.36
2022-09-07T06:18:39.054Z,17.41
2022-09-07T06:19:40.027Z,17.46
2022-09-07T06:20:39.017Z,17.51
2022-09-07T06:21:39.017Z,17.54
2022-09-07T06:22:39.018Z,17.57
2022-09-07T06:23:38.998Z,17.57
2022-09-07T06:24:38.966Z,17.62
2022-09-07T06:25:38.968Z,17.59
2022-09-07T06:26:38.927Z,17.66
2022-09-07T06:27:38.927Z,17.70
2022-09-07T06:28:38.952Z,17.76
2022-09-07T06:29:39.918Z,17.82
2022-09-07T06:30:38.898Z,17.87
2022-09-07T06:32:43.028Z,17.89
2022-09-07T06:33:38.880Z,17.94
2022-09-07T06:34:39.852Z,17.95
2022-09-07T06:35:38.850Z,18.02
2022-09-07T06:36:38.822Z,18.06
2022-09-07T06:37:38.802Z,18.13
2022-09-07T06:38:38.801Z,18.21
2022-09-07T06:39:38.854Z,18.28
2022-09-07T06:40:38.750Z,18.36
2022-09-07T06:42:39.736Z,18.49
2022-09-07T06:43:42.849Z,18.54
2022-09-07T06:44:39.741Z,18.61
2022-09-07T06:45:38.734Z,18.62
2022-09-07T06:47:39.672Z,18.70
2022-09-07T06:48:42.495Z,18.74
2022-09-07T06:49:39.653Z,18.80
2022-09-07T06:50:38.633Z,18.84
2022-09-07T06:51:38.647Z,18.87
2022-09-07T06:53:41.858Z,18.99
2022-09-07T06:55:39.573Z,19.08
2022-09-07T06:56:38.563Z,19.11
2022-09-07T06:57:38.564Z,19.14
2022-09-07T06:58:42.317Z,19.15
2022-09-07T06:59:38.520Z,19.18
2022-09-07T07:00:38.528Z,19.23
2022-09-07T07:01:38.505Z,19.25
2022-09-07T07:02:38.465Z,19.32
2022-09-07T07:03:38.558Z,19.33
2022-09-07T07:04:41.009Z,19.40
2022-09-07T07:05:39.460Z,19.47
2022-09-07T07:06:38.436Z,19.54
2022-09-07T07:07:38.423Z,19.61
2022-09-07T07:08:38.397Z,19.69
2022-09-07T07:09:38.397Z,19.75
2022-09-07T07:10:38.367Z,19.78
2022-09-07T07:11:38.398Z,19.87
2022-09-07T07:13:09.363Z,19.93
2022-09-07T07:14:09.352Z,19.95
2022-09-07T07:15:09.326Z,20.05
2022-09-07T07:16:09.379Z,20.13
2022-09-07T07:17:09.339Z,20.23
2022-09-07T07:18:20.925Z,20.28
2022-09-07T07:19:10.297Z,20.38
2022-09-07T07:20:09.323Z,20.43
2022-09-07T07:21:09.274Z,20.51
2022-09-07T07:22:45.740Z,20.61
2022-09-07T07:23:10.246Z,20.68
2022-09-07T07:24:09.248Z,20.74
2022-09-07T07:25:09.211Z,20.83
2022-09-07T07:26:09.208Z,20.87
2022-09-07T07:27:09.177Z,20.91
2022-09-07T07:29:10.171Z,20.95
2022-09-07T07:30:09.144Z,20.95
2022-09-07T07:31:12.930Z,20.96
2022-09-07T07:32:09.118Z,20.98
2022-09-07T07:33:09.178Z,21.02
2022-09-07T07:34:09.134Z,21.05
2022-09-07T07:35:09.071Z,21.06
2022-09-07T07:36:10.070Z,21.08
2022-09-07T07:37:09.103Z,21.09
2022-09-07T07:40:19.784Z,21.14
2022-09-07T07:42:09.984Z,21.16
2022-09-07T07:43:08.991Z,21.17
2022-09-07T07:44:08.962Z,21.17
2022-09-07T07:46:10.005Z,21.17
2022-09-07T07:47:08.941Z,21.20
2022-09-07T07:48:08.913Z,21.21
2022-09-07T07:49:08.903Z,21.23
2022-09-07T07:51:12.098Z,21.26
2022-09-07T07:54:09.845Z,21.26
2022-09-07T07:56:09.816Z,21.26
2022-09-07T07:57:09.813Z,21.24
2022-09-07T07:58:08.797Z,21.23
2022-09-07T07:59:12.566Z,21.23
2022-09-07T08:00:09.776Z,21.21
2022-09-07T08:01:08.795Z,21.20
2022-09-07T08:02:09.984Z,21.17
2022-09-07T08:03:08.745Z,21.13
2022-09-07T08:04:08.717Z,21.08
2022-09-07T08:05:08.687Z,21.08
2022-09-07T08:06:08.686Z,21.08
2022-09-07T08:07:11.005Z,21.11
2022-09-07T08:08:08.657Z,21.13
2022-09-07T08:09:08.658Z,21.14
2022-09-07T08:10:08.643Z,21.17
2022-09-07T08:11:08.632Z,21.16
2022-09-07T08:12:09.611Z,21.20
2022-09-07T08:13:08.599Z,21.26
2022-09-07T08:14:08.669Z,21.29
2022-09-07T08:15:08.589Z,21.30
2022-09-07T08:16:08.587Z,21.35
2022-09-07T08:17:08.603Z,21.39
2022-09-07T08:18:09.550Z,21.42
2022-09-07T08:19:08.530Z,21.45
2022-09-07T08:20:08.502Z,21.50
2022-09-07T08:21:08.503Z,21.53
2022-09-07T08:22:08.499Z,21.59
2022-09-07T08:23:09.637Z,21.66
2022-09-07T08:24:08.473Z,21.71
2022-09-07T08:25:08.452Z,21.76
2022-09-07T08:26:08.465Z,21.81
2022-09-07T08:27:08.440Z,21.88
2022-09-07T08:28:08.448Z,21.94
2022-09-07T08:29:08.413Z,21.99
2022-09-07T08:30:08.392Z,22.04
2022-09-07T08:31:08.413Z,22.09
2022-09-07T08:32:08.374Z,22.14
2022-09-07T08:33:10.373Z,22.20
2022-09-07T08:34:08.344Z,22.27
2022-09-07T08:35:08.344Z,22.28
2022-09-07T08:36:08.366Z,22.34
2022-09-07T08:37:08.296Z,22.37
2022-09-07T08:38:08.303Z,22.43
2022-09-07T08:39:08.321Z,22.50
2022-09-07T08:40:08.373Z,22.54
2022-09-07T08:41:08.266Z,22.59
2022-09-07T08:42:08.245Z,22.64
2022-09-07T08:43:08.241Z,22.67
2022-09-07T08:44:08.250Z,22.71
2022-09-07T08:45:09.198Z,22.75
2022-09-07T08:46:08.215Z,22.78
2022-09-07T08:47:08.193Z,22.77
2022-09-07T08:48:08.200Z,22.82
2022-09-07T08:49:08.177Z,22.87
2022-09-07T08:50:08.139Z,22.89
2022-09-07T08:51:08.133Z,22.89
2022-09-07T08:52:08.187Z,22.92
2022-09-07T08:53:08.109Z,22.97
2022-09-07T08:54:08.099Z,23.01
2022-09-07T08:55:08.103Z,23.09
2022-09-07T08:56:08.080Z,23.14
2022-09-07T08:57:23.440Z,23.17
2022-09-07T08:58:18.126Z,23.15
2022-09-07T08:59:09.040Z,23.20
2022-09-07T09:00:08.030Z,23.26
2022-09-07T09:04:17.247Z,23.49
2022-09-07T09:05:17.445Z,23.57
2022-09-07T09:06:09.047Z,23.58
2022-09-07T09:07:08.062Z,23.64
2022-09-07T09:08:07.909Z,23.71
2022-09-07T09:09:08.903Z,23.80
2022-09-07T09:10:07.873Z,23.94
2022-09-07T09:11:07.865Z,24.04
2022-09-07T09:12:07.855Z,24.02
2022-09-07T09:13:07.865Z,24.05
2022-09-07T09:14:07.824Z,24.07
2022-09-07T09:15:07.815Z,24.08
2022-09-07T09:16:07.864Z,24.08
2022-09-07T09:17:07.797Z,24.10
2022-09-07T09:18:10.115Z,24.13
2022-09-07T09:19:08.746Z,24.20
2022-09-07T09:20:07.766Z,24.27
2022-09-07T09:21:07.755Z,24.29
2022-09-07T09:22:07.714Z,24.35
2022-09-07T09:23:07.707Z,24.42
2022-09-07T09:24:07.696Z,24.45
2022-09-07T09:25:07.689Z,24.45
2022-09-07T09:26:07.667Z,24.50
2022-09-07T09:27:07.657Z,24.53
2022-09-07T09:28:07.630Z,24.54
2022-09-07T09:29:07.668Z,24.57
2022-09-07T09:30:07.613Z,24.61
2022-09-07T09:31:07.646Z,24.67
2022-09-07T09:32:07.589Z,24.71
2022-09-07T09:33:07.558Z,24.73
2022-09-07T09:34:07.570Z,24.80
2022-09-07T09:35:08.569Z,24.90
2022-09-07T09:36:07.531Z,24.97
2022-09-07T09:37:07.522Z,25.02
2022-09-07T09:38:07.505Z,25.12
2022-09-07T09:39:07.494Z,25.00
2022-09-07T09:40:07.545Z,25.10
2022-09-07T09:41:08.472Z,25.15
2022-09-07T09:42:07.451Z,25.25
2022-09-07T09:43:07.451Z,25.31
2022-09-07T09:44:07.465Z,25.39
2022-09-07T09:45:08.413Z,25.42
2022-09-07T09:46:14.622Z,25.42
2022-09-07T10:04:01.451Z,26.12
2022-09-07T10:04:45.468Z,25.99
2022-09-07T10:05:44.470Z,26.11
2022-09-07T10:06:44.439Z,26.25
2022-09-07T10:07:44.438Z,26.28
2022-09-07T10:08:44.419Z,26.39
2022-09-07T10:09:44.443Z,26.55
2022-09-07T10:10:44.405Z,26.67
2022-09-07T10:12:45.407Z,26.87
2022-09-07T10:13:44.351Z,26.96
2022-09-07T10:14:44.373Z,26.83
2022-09-07T10:15:44.372Z,26.87
2022-09-07T10:16:44.315Z,26.94
2022-09-07T10:17:44.320Z,27.02
2022-09-07T10:18:44.307Z,27.10
2022-09-07T10:19:44.303Z,27.19
2022-09-07T10:20:44.276Z,27.19
2022-09-07T10:21:45.254Z,27.13
2022-09-07T10:22:46.613Z,27.17
2022-09-07T10:23:44.245Z,27.26
2022-09-07T10:24:44.234Z,27.41
2022-09-07T10:25:44.218Z,27.53
2022-09-07T10:26:45.194Z,27.69
2022-09-07T10:27:44.197Z,27.85
2022-09-07T10:29:45.155Z,27.86
2022-09-07T10:30:44.189Z,27.92
2022-09-07T10:31:44.199Z,28.04
2022-09-07T10:32:44.107Z,28.13
2022-09-07T10:34:25.372Z,28.35
2022-09-07T10:34:45.128Z,28.25
2022-09-07T10:35:44.084Z,28.40
2022-09-07T10:36:44.057Z,28.54
2022-09-07T10:37:44.057Z,28.48
2022-09-07T10:38:44.037Z,28.56
2022-09-07T10:39:44.077Z,28.87
2022-09-07T10:40:44.030Z,28.93
2022-09-07T10:41:44.035Z,28.82
2022-09-07T10:43:20.643Z,28.80
2022-09-07T10:43:44.973Z,28.58
2022-09-07T10:44:43.961Z,28.19
2022-09-07T10:45:43.963Z,27.92
2022-09-07T10:46:59.427Z,27.79
2022-09-07T10:47:44.929Z,27.71
2022-09-07T10:48:43.926Z,27.57
2022-09-07T10:50:21.914Z,27.66
2022-09-07T10:50:44.934Z,27.99
2022-09-07T10:51:43.882Z,28.22
2022-09-07T10:52:43.867Z,28.53
2022-09-07T10:53:44.888Z,28.69
2022-09-07T10:54:43.833Z,28.81
2022-09-07T10:55:43.843Z,29.06
2022-09-07T10:56:44.803Z,29.38
2022-09-07T10:57:48.763Z,29.66
2022-09-07T11:00:44.757Z,29.87
2022-09-07T11:01:43.789Z,30.07
2022-09-07T11:03:25.026Z,30.33
2022-09-07T11:03:45.173Z,30.21
2022-09-07T11:04:43.708Z,30.21
2022-09-07T11:05:43.717Z,29.78
2022-09-07T11:06:43.690Z,29.65
2022-09-07T11:07:43.660Z,29.81
2022-09-07T11:09:44.639Z,30.00
2022-09-07T11:10:43.691Z,30.09
2022-09-07T11:12:44.619Z,30.34
2022-09-07T11:14:02.070Z,30.21
2022-09-07T11:14:44.652Z,30.19
2022-09-07T11:15:43.640Z,30.08
2022-09-07T11:16:51.335Z,29.86
2022-09-07T11:17:45.868Z,29.96
2022-09-07T11:18:43.556Z,30.15
2022-09-07T11:19:43.539Z,29.92
2022-09-07T11:20:43.553Z,29.45
2022-09-07T11:21:58.756Z,29.18
2022-09-07T11:22:44.502Z,29.33
2022-09-07T11:23:43.486Z,29.63
2022-09-07T11:24:43.580Z,29.90
2022-09-07T11:25:43.480Z,30.11
2022-09-07T11:26:43.444Z,30.54
2022-09-07T11:27:43.461Z,30.43
2022-09-07T11:28:43.438Z,30.47
2022-09-07T11:29:43.424Z,30.47
2022-09-07T11:30:43.468Z,30.54
2022-09-07T11:31:43.397Z,30.87
2022-09-07T11:32:43.385Z,31.20
2022-09-07T11:34:23.888Z,31.24
2022-09-07T11:34:45.211Z,31.50
2022-09-07T11:35:43.345Z,31.36
2022-09-07T11:36:43.315Z,31.04
2022-09-07T11:37:43.318Z,30.53
2022-09-07T11:38:43.295Z,29.92
2022-09-07T11:39:44.348Z,30.09
2022-09-07T11:40:43.285Z,29.84
2022-09-07T11:41:43.270Z,29.44
2022-09-07T11:42:43.833Z,29.10
2022-09-07T11:43:43.240Z,29.66
2022-09-07T11:44:46.095Z,30.29
2022-09-07T11:45:43.210Z,30.86
2022-09-07T11:46:43.267Z,31.55
2022-09-07T11:47:43.194Z,32.30
2022-09-07T11:48:43.160Z,33.20
2022-09-07T11:49:45.409Z,33.86
2022-09-07T11:50:44.152Z,33.85
2022-09-07T11:51:43.151Z,34.32
2022-09-07T11:52:43.119Z,33.57
2022-09-07T11:53:43.126Z,32.69
2022-09-07T11:54:43.099Z,31.87
2022-09-07T11:55:43.085Z,31.30
2022-09-07T11:56:45.641Z,30.98
2022-09-07T11:57:43.054Z,32.17
2022-09-07T11:58:43.046Z,32.64
2022-09-07T11:59:43.038Z,33.48
2022-09-07T12:00:43.013Z,33.86
2022-09-07T12:01:43.003Z,34.14
2022-09-07T12:02:58.934Z,34.51
2022-09-07T12:03:44.115Z,35.21
2022-09-07T12:04:43.028Z,33.87
2022-09-07T12:05:43.029Z,32.85
2022-09-07T12:06:42.934Z,32.48
2022-09-07T12:07:42.934Z,33.42
2022-09-07T12:09:03.898Z,34.00
2022-09-07T12:09:42.922Z,34.84
2022-09-07T12:10:42.897Z,35.25
2022-09-07T12:11:43.869Z,34.98
2022-09-07T12:12:42.906Z,35.25
2022-09-07T12:13:42.848Z,35.57
2022-09-07T12:14:42.831Z,36.23
2022-09-07T12:15:42.857Z,35.81
2022-09-07T12:16:43.807Z,34.96
2022-09-07T12:17:42.810Z,34.31
2022-09-07T12:18:42.781Z,33.34
2022-09-07T12:19:42.769Z,32.21
2022-09-07T12:20:43.783Z,31.49
2022-09-07T12:21:42.757Z,31.31
2022-09-07T12:22:42.722Z,31.54
2022-09-07T12:23:42.723Z,31.85
2022-09-07T12:24:42.720Z,32.32
2022-09-07T12:25:42.694Z,32.14
2022-09-07T12:26:42.695Z,32.39
2022-09-07T12:27:42.704Z,32.11
2022-09-07T12:28:42.653Z,31.96
2022-09-07T12:29:45.740Z,32.92
2022-09-07T12:30:42.639Z,33.87
2022-09-07T12:31:57.268Z,34.58
2022-09-07T12:32:59.030Z,34.48
2022-09-07T12:33:43.609Z,34.73
2022-09-07T12:34:42.599Z,34.86
2022-09-07T12:35:44.618Z,35.37
2022-09-07T12:36:43.561Z,35.95
2022-09-07T12:37:42.565Z,36.60
2022-09-07T12:38:42.537Z,37.13
2022-09-07T12:39:42.625Z,37.80
2022-09-07T12:40:42.538Z,38.32
2022-09-07T12:41:42.520Z,38.71
2022-09-07T12:42:42.479Z,39.01
2022-09-07T12:43:42.492Z,39.02
2022-09-07T12:44:42.471Z,38.83
2022-09-07T12:45:42.535Z,39.05
2022-09-07T12:46:42.470Z,38.18
2022-09-07T12:47:43.430Z,38.53
2022-09-07T12:48:43.413Z,38.46
2022-09-07T12:49:42.476Z,37.32
2022-09-07T12:50:42.534Z,37.07
2022-09-07T12:52:43.384Z,37.96
2022-09-07T12:53:42.375Z,37.50
2022-09-07T12:54:42.351Z,37.20
2022-09-07T12:56:43.892Z,37.59
2022-09-07T12:57:42.330Z,37.54
2022-09-07T12:58:42.314Z,37.85
2022-09-07T12:59:42.311Z,38.48
2022-09-07T13:00:42.308Z,38.98
2022-09-07T13:01:42.402Z,38.17
2022-09-07T13:02:42.350Z,37.48
2022-09-07T13:03:51.724Z,37.88
2022-09-07T13:04:43.257Z,38.01
2022-09-07T13:05:42.237Z,38.24
2022-09-07T13:07:43.226Z,38.70
2022-09-07T13:08:42.207Z,38.39
2022-09-07T13:09:42.190Z,38.60
2022-09-07T13:10:42.198Z,38.73
2022-09-07T13:11:42.198Z,39.18
2022-09-07T13:12:58.065Z,39.61
2022-09-07T13:14:43.875Z,37.66
2022-09-07T13:15:42.170Z,37.36
2022-09-07T13:17:43.098Z,37.51
2022-09-07T13:18:42.093Z,36.49
2022-09-07T13:19:42.090Z,36.00
2022-09-07T13:20:43.063Z,35.77
2022-09-07T13:21:42.071Z,36.21
2022-09-07T13:22:42.055Z,36.58
2022-09-07T13:23:42.042Z,36.85
2022-09-07T13:24:49.257Z,36.52
2022-09-07T13:25:43.009Z,36.01
2022-09-07T13:26:42.020Z,36.42
2022-09-07T13:27:43.490Z,36.24
2022-09-07T13:28:41.979Z,36.15
2022-09-07T13:29:41.985Z,36.41
2022-09-07T13:30:42.546Z,36.60
2022-09-07T13:31:41.955Z,36.11
2022-09-07T13:33:42.947Z,34.35
2022-09-07T13:34:41.960Z,33.58
2022-09-07T13:35:41.928Z,32.95
2022-09-07T13:36:41.936Z,33.31
2022-09-07T13:37:41.984Z,34.02
2022-09-07T13:38:41.957Z,34.76
2022-09-07T13:39:42.982Z,35.64
2022-09-07T13:40:41.859Z,36.60
2022-09-07T13:41:41.920Z,37.01
2022-09-07T13:42:41.881Z,37.02
2022-09-07T13:43:41.814Z,36.72
2022-09-07T13:44:42.823Z,36.61
2022-09-07T13:45:42.835Z,36.52
2022-09-07T13:46:41.814Z,36.03
2022-09-07T13:47:41.861Z,35.85
2022-09-07T13:48:41.824Z,35.70
2022-09-07T13:49:41.750Z,35.52
2022-09-07T13:50:42.743Z,35.37
2022-09-07T13:51:41.841Z,35.02
2022-09-07T13:52:41.761Z,34.38
2022-09-07T13:53:41.745Z,33.41
2022-09-07T13:54:41.785Z,32.81
2022-09-07T13:56:03.776Z,32.27
2022-09-07T13:56:42.698Z,31.84
2022-09-07T13:57:41.704Z,31.60
2022-09-07T13:58:41.738Z,31.27